Time;durP1;ratioP1;P1;durP2;ratioP2;P2;SDS_P1;SDS_P2;PMS_P1;PMS_P2;Temp;Humidity;BMP_temperature;BMP_pressure;BME280_temperature;BME280_humidity;BME280_pressure;Samples;Min_cycle;Max_cycle;Signal;HPM_P1;HPM_P2
2022/02/23 00:01:21;;;;;;;1.23;0.17;;;;;;;;;;4978691;28;20468;-88
2022/02/23 00:03:47;;;;;;;1.80;0.33;;;;;;;;;;4960899;29;20095;-88
2022/02/23 00:06:13;;;;;;;1.00;0.13;;;;;;;;;;4945441;28;20095;-88
2022/02/23 00:08:39;;;;;;;2.43;0.30;;;;;;;;;;4942344;29;20024;-88
2022/02/23 00:11:05;;;;;;;2.57;0.30;;;;;;;;;;4968325;28;20061;-88
2022/02/23 00:13:34;;;;;;;1.23;0.10;;;;;;;;;;4949417;28;20200;-88
2022/02/23 00:16:02;;;;;;;2.53;0.10;;;;;;;;;;4970446;28;20456;-88
2022/02/23 00:18:28;;;;;;;1.03;0.10;;;;;;;;;;4954909;28;20049;-88
2022/02/23 00:20:54;;;;;;;0.63;0.20;;;;;;;;;;4971138;28;20499;-88
2022/02/23 00:23:20;;;;;;;0.77;0.10;;;;;;;;;;4946766;28;20038;-88
2022/02/23 00:25:46;;;;;;;1.70;0.20;;;;;;;;;;4958837;28;20081;-88
2022/02/23 00:28:12;;;;;;;0.73;0.30;;;;;;;;;;4957369;29;20030;-87
2022/02/23 00:30:39;;;;;;;0.97;0.40;;;;;;;;;;4973289;28;20031;-90
2022/02/23 00:33:04;;;;;;;2.77;0.13;;;;;;;;;;4985769;28;20094;-89
2022/02/23 00:35:31;;;;;;;1.07;0.20;;;;;;;;;;4956813;28;20043;-88
2022/02/23 00:37:56;;;;;;;2.63;0.30;;;;;;;;;;4960687;28;20086;-89
2022/02/23 00:40:22;;;;;;;0.93;0.20;;;;;;;;;;4961354;28;20324;-88
2022/02/23 00:42:48;;;;;;;1.80;0.40;;;;;;;;;;4972990;28;20031;-88
2022/02/23 00:45:14;;;;;;;0.30;0.10;;;;;;;;;;4955504;28;20031;-88
2022/02/23 00:47:40;;;;;;;1.20;0.40;;;;;;;;;;4961000;28;20384;-88
2022/02/23 00:50:07;;;;;;;0.47;0.33;;;;;;;;;;4965030;28;20118;-88
2022/02/23 00:52:33;;;;;;;0.40;0.10;;;;;;;;;;4953957;29;20035;-88
2022/02/23 00:54:59;;;;;;;2.37;0.30;;;;;;;;;;4968216;28;20027;-88
2022/02/23 00:57:25;;;;;;;2.10;0.20;;;;;;;;;;4949469;29;20551;-89
2022/02/23 00:59:54;;;;;;;1.57;0.20;;;;;;;;;;4942505;29;20125;-88
2022/02/23 01:02:20;;;;;;;3.40;0.30;;;;;;;;;;4951190;28;20023;-88
2022/02/23 01:04:46;;;;;;;0.57;0.10;;;;;;;;;;4956687;28;20072;-88
2022/02/23 01:07:22;;;;;;;;;;;;;;;;;;;;;
2022/02/23 01:09:49;;;;;;;0.43;0.10;;;;;;;;;;4974210;28;20558;-88
2022/02/23 01:12:16;;;;;;;1.30;0.23;;;;;;;;;;4971873;28;20038;-88
2022/02/23 01:14:42;;;;;;;1.37;0.30;;;;;;;;;;4950238;28;20038;-88
2022/02/23 01:17:09;;;;;;;0.87;0.10;;;;;;;;;;4952675;28;20031;-88
2022/02/23 01:19:35;;;;;;;1.27;0.27;;;;;;;;;;4948230;28;20755;-89
2022/02/23 01:22:01;;;;;;;0.70;0.20;;;;;;;;;;4946808;28;20154;-87
2022/02/23 01:24:27;;;;;;;1.70;0.20;;;;;;;;;;4960464;28;20062;-88
2022/02/23 01:26:53;;;;;;;1.00;0.30;;;;;;;;;;4955722;28;20030;-86
2022/02/23 01:29:19;;;;;;;0.63;0.20;;;;;;;;;;4952975;28;20027;-86
2022/02/23 01:31:45;;;;;;;1.50;0.20;;;;;;;;;;4953425;28;20479;-86
2022/02/23 01:34:11;;;;;;;1.33;0.30;;;;;;;;;;4951675;28;20031;-86
2022/02/23 01:36:37;;;;;;;0.73;0.43;;;;;;;;;;4943214;29;20034;-84
2022/02/23 01:39:03;;;;;;;0.57;0.20;;;;;;;;;;4962211;28;20467;-85
2022/02/23 01:41:29;;;;;;;0.23;0.10;;;;;;;;;;4952861;28;20041;-85
2022/02/23 01:43:56;;;;;;;0.93;0.20;;;;;;;;;;4949409;28;20023;-85
2022/02/23 01:46:22;;;;;;;1.07;0.23;;;;;;;;;;4943361;28;20037;-85
2022/02/23 01:48:48;;;;;;;1.97;0.20;;;;;;;;;;4955743;28;20129;-86
2022/02/23 01:51:14;;;;;;;0.10;0.10;;;;;;;;;;4949070;28;20040;-85
2022/02/23 01:53:40;;;;;;;0.47;0.20;;;;;;;;;;4955398;28;20073;-85
2022/02/23 01:56:06;;;;;;;1.07;0.10;;;;;;;;;;4971348;28;20111;-85
2022/02/23 01:58:32;;;;;;;1.33;0.20;;;;;;;;;;4958768;28;20035;-85
2022/02/23 02:00:58;;;;;;;2.07;0.23;;;;;;;;;;4935791;29;20032;-85
2022/02/23 02:03:26;;;;;;;1.00;0.30;;;;;;;;;;4963925;28;20042;-85
2022/02/23 02:05:52;;;;;;;1.10;0.17;;;;;;;;;;4967511;28;20558;-85
2022/02/23 02:08:18;;;;;;;0.27;0.00;;;;;;;;;;4949245;28;20047;-86
2022/02/23 02:10:44;;;;;;;1.33;0.73;;;;;;;;;;4958177;28;20027;-87
2022/02/23 02:13:10;;;;;;;0.87;0.13;;;;;;;;;;4954940;28;20505;-86
2022/02/23 02:15:36;;;;;;;0.50;0.10;;;;;;;;;;4952047;28;20023;-86
2022/02/23 02:18:03;;;;;;;0.40;0.00;;;;;;;;;;4955336;28;20042;-87
2022/02/23 02:20:29;;;;;;;3.80;0.30;;;;;;;;;;4958250;29;20123;-87
2022/02/23 02:22:55;;;;;;;1.70;0.10;;;;;;;;;;4954620;29;20083;-87
2022/02/23 02:25:21;;;;;;;1.07;0.17;;;;;;;;;;4952347;28;20121;-88
2022/02/23 02:27:47;;;;;;;2.30;0.20;;;;;;;;;;4961689;28;20031;-87
2022/02/23 02:30:13;;;;;;;0.77;0.20;;;;;;;;;;4946496;28;20138;-87
2022/02/23 02:32:39;;;;;;;2.07;0.27;;;;;;;;;;4961672;28;20031;-87
2022/02/23 02:35:05;;;;;;;1.40;0.27;;;;;;;;;;4927395;29;20515;-87
2022/02/23 02:37:31;;;;;;;0.97;0.13;;;;;;;;;;4938280;29;20060;-87
2022/02/23 02:40:00;;;;;;;2.03;0.40;;;;;;;;;;4938196;29;20027;-87
2022/02/23 02:42:26;;;;;;;0.67;0.07;;;;;;;;;;4956369;28;20023;-86
2022/02/23 02:44:52;;;;;;;1.47;0.27;;;;;;;;;;4939800;28;20439;-87
2022/02/23 02:47:20;;;;;;;3.03;0.30;;;;;;;;;;4942648;29;20108;-87
2022/02/23 02:49:46;;;;;;;4.37;0.40;;;;;;;;;;4940875;29;20027;-87
2022/02/23 02:52:12;;;;;;;5.33;0.30;;;;;;;;;;4938452;29;20034;-86
2022/02/23 02:54:39;;;;;;;0.30;0.10;;;;;;;;;;4951882;28;20030;-87
2022/02/23 02:57:05;;;;;;;4.33;0.40;;;;;;;;;;4969842;28;20059;-86
2022/02/23 02:59:31;;;;;;;2.83;0.20;;;;;;;;;;4943966;29;20023;-86
2022/02/23 03:01:57;;;;;;;2.17;0.40;;;;;;;;;;4955388;28;20023;-87
2022/02/23 03:04:23;;;;;;;3.67;0.30;;;;;;;;;;4970837;28;20038;-87
2022/02/23 03:06:49;;;;;;;5.27;1.00;;;;;;;;;;4950358;29;20050;-86
2022/02/23 03:09:15;;;;;;;1.40;0.30;;;;;;;;;;4963040;28;20145;-87
2022/02/23 03:11:41;;;;;;;3.03;0.30;;;;;;;;;;4959970;28;20031;-87
2022/02/23 03:14:07;;;;;;;5.80;0.40;;;;;;;;;;4948439;28;20053;-87
2022/02/23 03:16:33;;;;;;;1.70;0.27;;;;;;;;;;4967278;28;20027;-88
2022/02/23 03:18:59;;;;;;;3.03;0.40;;;;;;;;;;4957511;28;20110;-87
2022/02/23 03:21:25;;;;;;;1.80;0.33;;;;;;;;;;4948417;28;20031;-86
2022/02/23 03:23:51;;;;;;;0.93;0.20;;;;;;;;;;4958469;28;20034;-87
2022/02/23 03:26:17;;;;;;;2.77;0.43;;;;;;;;;;4959233;28;20027;-85
2022/02/23 03:28:43;;;;;;;5.60;0.90;;;;;;;;;;4957116;28;20050;-86
2022/02/23 03:31:10;;;;;;;2.20;0.33;;;;;;;;;;4957453;28;20035;-86
2022/02/23 03:33:43;;;;;;;2.97;0.40;;;;;;;;;;4967141;28;20456;-86
2022/02/23 03:36:13;;;;;;;4.20;0.30;;;;;;;;;;4948745;28;20035;-86
2022/02/23 03:38:40;;;;;;;1.70;0.20;;;;;;;;;;4954865;29;20075;-86
2022/02/23 03:41:06;;;;;;;4.10;1.03;;;;;;;;;;4959182;29;20088;-85
2022/02/23 03:43:32;;;;;;;5.27;0.60;;;;;;;;;;4927618;28;20050;-86
2022/02/23 03:45:58;;;;;;;1.53;0.20;;;;;;;;;;4946524;28;20096;-86
2022/02/23 03:48:26;;;;;;;0.77;0.20;;;;;;;;;;4949723;28;20031;-85
2022/02/23 03:50:52;;;;;;;1.30;0.40;;;;;;;;;;4957694;28;20038;-85
2022/02/23 03:53:18;;;;;;;1.90;0.50;;;;;;;;;;4952790;29;20119;-86
2022/02/23 03:55:44;;;;;;;5.40;0.53;;;;;;;;;;4939822;28;20039;-85
2022/02/23 03:58:11;;;;;;;1.37;0.30;;;;;;;;;;4971083;28;20031;-86
2022/02/23 04:00:37;;;;;;;7.70;0.50;;;;;;;;;;4966216;28;20023;-86
2022/02/23 04:03:03;;;;;;;2.83;0.97;;;;;;;;;;4955377;28;20031;-86
2022/02/23 04:05:29;;;;;;;1.87;0.20;;;;;;;;;;4943827;28;20113;-86
2022/02/23 04:07:55;;;;;;;3.23;0.40;;;;;;;;;;4958867;28;20050;-86
2022/02/23 04:10:23;;;;;;;3.80;0.37;;;;;;;;;;4957262;28;20035;-84
2022/02/23 04:12:49;;;;;;;3.10;0.40;;;;;;;;;;4943357;28;20043;-85
2022/02/23 04:15:15;;;;;;;2.63;0.30;;;;;;;;;;4964733;28;20042;-85
2022/02/23 04:17:44;;;;;;;2.37;0.23;;;;;;;;;;4958639;29;20085;-86
2022/02/23 04:20:10;;;;;;;4.60;0.50;;;;;;;;;;4957517;29;20475;-86
2022/02/23 04:22:37;;;;;;;0.73;0.23;;;;;;;;;;4939107;29;20396;-85
2022/02/23 04:25:04;;;;;;;2.17;0.60;;;;;;;;;;4971504;28;20035;-86
2022/02/23 04:27:30;;;;;;;1.17;0.20;;;;;;;;;;4943580;28;20476;-85
2022/02/23 04:29:55;;;;;;;2.27;0.40;;;;;;;;;;4956334;28;20038;-85
2022/02/23 04:32:21;;;;;;;3.70;0.40;;;;;;;;;;4967258;28;20043;-85
2022/02/23 04:34:48;;;;;;;4.87;0.43;;;;;;;;;;4956835;28;20038;-85
2022/02/23 04:37:14;;;;;;;3.63;0.40;;;;;;;;;;4963849;28;20042;-86
2022/02/23 04:39:40;;;;;;;2.80;0.70;;;;;;;;;;4929353;29;20019;-86
2022/02/23 04:42:09;;;;;;;1.27;0.30;;;;;;;;;;4954443;28;20478;-86
2022/02/23 04:44:35;;;;;;;1.13;0.30;;;;;;;;;;4949427;29;20030;-85
2022/02/23 04:47:01;;;;;;;1.50;0.30;;;;;;;;;;4963626;28;20632;-86
2022/02/23 04:49:27;;;;;;;3.77;0.67;;;;;;;;;;4942289;29;20031;-85
2022/02/23 04:51:53;;;;;;;3.70;0.40;;;;;;;;;;4956300;28;20547;-86
2022/02/23 04:54:19;;;;;;;2.90;0.70;;;;;;;;;;4957434;28;20031;-86
2022/02/23 04:56:46;;;;;;;2.23;0.60;;;;;;;;;;4950716;28;20031;-85
2022/02/23 04:59:15;;;;;;;2.63;0.60;;;;;;;;;;4946208;28;20053;-86
2022/02/23 05:01:41;;;;;;;2.43;0.43;;;;;;;;;;4958347;28;20035;-85
2022/02/23 05:04:07;;;;;;;3.50;0.30;;;;;;;;;;4950754;28;20034;-85
2022/02/23 05:06:33;;;;;;;2.07;0.40;;;;;;;;;;4970227;28;20039;-86
2022/02/23 05:08:59;;;;;;;5.43;0.77;;;;;;;;;;4959071;28;20035;-86
2022/02/23 05:11:25;;;;;;;1.90;0.57;;;;;;;;;;4972268;28;20035;-86
2022/02/23 05:13:52;;;;;;;2.43;0.50;;;;;;;;;;4965643;28;20027;-86
2022/02/23 05:16:18;;;;;;;4.00;0.40;;;;;;;;;;4949872;29;20031;-86
2022/02/23 05:18:44;;;;;;;2.93;0.43;;;;;;;;;;4963587;28;20101;-86
2022/02/23 05:21:12;;;;;;;1.53;0.40;;;;;;;;;;4959260;28;20514;-86
2022/02/23 05:23:38;;;;;;;1.83;0.40;;;;;;;;;;4958538;29;20490;-86
2022/02/23 05:26:04;;;;;;;6.40;0.60;;;;;;;;;;4925722;29;20040;-86
2022/02/23 05:28:32;;;;;;;1.83;0.43;;;;;;;;;;4948766;28;20031;-85
2022/02/23 05:30:58;;;;;;;0.63;0.20;;;;;;;;;;4944073;28;20039;-85
2022/02/23 05:33:24;;;;;;;2.53;0.40;;;;;;;;;;4946445;28;20035;-86
2022/02/23 05:35:50;;;;;;;4.37;0.90;;;;;;;;;;4992001;23;20108;-89
2022/02/23 05:38:16;;;;;;;3.80;0.60;;;;;;;;;;4989089;28;20089;-89
2022/02/23 05:40:43;;;;;;;2.37;0.60;;;;;;;;;;4977576;28;20080;-89
2022/02/23 05:43:09;;;;;;;4.00;0.90;;;;;;;;;;4976925;28;20029;-88
2022/02/23 05:45:35;;;;;;;3.63;1.10;;;;;;;;;;4975560;28;20041;-89
2022/02/23 05:48:03;;;;;;;1.50;0.60;;;;;;;;;;4961567;28;20043;-89
2022/02/23 05:50:35;;;;;;;6.20;0.77;;;;;;;;;;4967383;28;20066;-91
2022/02/23 05:53:01;;;;;;;5.65;0.88;;;;;;;;;;4972409;28;20049;-91
2022/02/23 05:55:27;;;;;;;4.20;0.80;;;;;;;;;;4978900;28;20027;-90
2022/02/23 05:57:56;;;;;;;4.20;0.93;;;;;;;;;;4969564;28;20435;-90
2022/02/23 06:00:25;;;;;;;4.00;1.03;;;;;;;;;;4966021;28;20030;-90
2022/02/23 06:02:51;;;;;;;6.87;1.10;;;;;;;;;;4966219;28;20468;-88
2022/02/23 06:05:24;;;;;;;2.43;0.70;;;;;;;;;;4961576;28;20035;-89
2022/02/23 06:07:58;;;;;;;5.38;0.90;;;;;;;;;;4967865;28;20065;-89
2022/02/23 06:10:33;;;;;;;6.50;0.83;;;;;;;;;;4965245;28;20518;-90
2022/02/23 06:13:02;;;;;;;5.50;0.80;;;;;;;;;;4971396;28;20023;-89
2022/02/23 06:15:51;;;;;;;4.00;0.70;;;;;;;;;;4953146;28;20067;-89
2022/02/23 06:18:31;;;;;;;3.87;0.97;;;;;;;;;;4953442;28;20144;-90
2022/02/23 06:21:01;;;;;;;3.17;0.87;;;;;;;;;;4967559;28;20082;-90
2022/02/23 06:23:27;;;;;;;5.40;1.60;;;;;;;;;;4973345;28;20042;-88
2022/02/23 06:25:53;;;;;;;3.83;1.13;;;;;;;;;;4972614;28;20034;-88
2022/02/23 06:28:20;;;;;;;4.70;0.93;;;;;;;;;;4974050;28;20471;-89
2022/02/23 06:30:46;;;;;;;7.50;0.97;;;;;;;;;;4978301;28;20136;-89
2022/02/23 06:33:12;;;;;;;4.40;1.50;;;;;;;;;;4975829;28;20034;-87
2022/02/23 06:35:39;;;;;;;2.80;0.67;;;;;;;;;;4978973;28;20041;-88
2022/02/23 06:38:05;;;;;;;6.50;1.03;;;;;;;;;;4995608;28;20057;-89
2022/02/23 06:40:32;;;;;;;4.00;0.90;;;;;;;;;;4991779;28;20057;-88
2022/02/23 06:42:59;;;;;;;3.40;0.57;;;;;;;;;;4970204;28;20033;-88
2022/02/23 06:45:25;;;;;;;3.33;0.70;;;;;;;;;;4984719;28;20125;-89
2022/02/23 06:47:51;;;;;;;1.90;0.70;;;;;;;;;;4977944;28;20514;-87
2022/02/23 06:50:17;;;;;;;3.50;1.10;;;;;;;;;;4993369;28;20092;-89
2022/02/23 06:52:44;;;;;;;4.17;0.90;;;;;;;;;;4981522;28;21216;-89
2022/02/23 06:55:11;;;;;;;4.10;1.00;;;;;;;;;;4962633;28;20030;-89
2022/02/23 06:57:40;;;;;;;5.93;0.90;;;;;;;;;;4983663;28;20390;-88
2022/02/23 07:00:07;;;;;;;5.03;0.80;;;;;;;;;;4982375;28;20114;-88
2022/02/23 07:02:36;;;;;;;3.87;0.83;;;;;;;;;;4984618;28;20026;-89
2022/02/23 07:05:03;;;;;;;6.50;1.47;;;;;;;;;;4988067;28;20510;-89
2022/02/23 07:07:30;;;;;;;1.77;0.67;;;;;;;;;;4990923;28;20498;-89
2022/02/23 07:09:56;;;;;;;2.03;0.73;;;;;;;;;;4996050;28;20034;-88
2022/02/23 07:12:22;;;;;;;5.27;0.67;;;;;;;;;;5003422;28;20091;-89
2022/02/23 07:14:48;;;;;;;4.67;0.80;;;;;;;;;;4979207;28;20030;-89
2022/02/23 07:17:14;;;;;;;2.30;0.70;;;;;;;;;;4995545;28;20035;-89
2022/02/23 07:19:40;;;;;;;4.73;0.77;;;;;;;;;;4995234;28;20057;-88
2022/02/23 07:22:06;;;;;;;3.50;0.80;;;;;;;;;;4978962;28;20091;-87
2022/02/23 07:24:35;;;;;;;5.00;0.67;;;;;;;;;;4982887;28;20041;-88
2022/02/23 07:27:01;;;;;;;2.60;0.70;;;;;;;;;;4971430;28;20558;-87
2022/02/23 07:29:27;;;;;;;4.27;0.90;;;;;;;;;;4982473;28;20105;-88
2022/02/23 07:31:53;;;;;;;4.67;0.80;;;;;;;;;;4986390;28;20022;-88
2022/02/23 07:34:19;;;;;;;3.83;0.70;;;;;;;;;;4970794;28;20094;-88
2022/02/23 07:36:45;;;;;;;6.63;0.70;;;;;;;;;;4983263;28;20088;-88
2022/02/23 07:39:12;;;;;;;4.00;0.80;;;;;;;;;;5000739;28;20105;-88
2022/02/23 07:41:38;;;;;;;1.67;0.63;;;;;;;;;;4983316;28;20110;-88
2022/02/23 07:44:04;;;;;;;2.53;0.60;;;;;;;;;;4994138;28;20094;-88
2022/02/23 07:46:30;;;;;;;2.40;0.50;;;;;;;;;;4978524;28;20438;-88
2022/02/23 07:49:00;;;;;;;6.07;0.80;;;;;;;;;;4996084;28;20035;-88
2022/02/23 07:51:27;;;;;;;6.20;0.70;;;;;;;;;;4977950;28;20058;-87
2022/02/23 07:53:54;;;;;;;4.13;0.90;;;;;;;;;;4994087;28;20031;-86
2022/02/23 07:56:21;;;;;;;4.23;0.67;;;;;;;;;;4978473;28;20625;-88
2022/02/23 07:58:47;;;;;;;1.80;0.40;;;;;;;;;;4995497;28;20606;-87
2022/02/23 08:01:32;;;;;;;5.43;0.77;;;;;;;;;;4995996;28;20026;-87
2022/02/23 08:03:59;;;;;;;2.17;0.40;;;;;;;;;;4977045;28;20038;-87
2022/02/23 08:06:25;;;;;;;2.03;0.67;;;;;;;;;;4977710;28;20068;-87
2022/02/23 08:08:53;;;;;;;3.47;0.70;;;;;;;;;;4978313;28;20035;-87
2022/02/23 08:11:19;;;;;;;2.83;0.60;;;;;;;;;;4995591;28;20084;-87
2022/02/23 08:13:46;;;;;;;4.77;0.70;;;;;;;;;;4991218;28;20034;-87
2022/02/23 08:21:41;;;;;;;1.97;0.60;;;;;;;;;;5006102;28;20061;-87
2022/02/23 08:24:08;;;;;;;1.50;0.60;;;;;;;;;;4968150;28;20038;-85
2022/02/23 08:26:33;;;;;;;2.40;0.50;;;;;;;;;;4977022;28;20026;-86
2022/02/23 08:28:59;;;;;;;2.87;0.70;;;;;;;;;;4978348;28;20027;-85
2022/02/23 08:31:26;;;;;;;3.70;0.80;;;;;;;;;;4990339;28;20038;-85
2022/02/23 08:33:53;;;;;;;4.83;0.80;;;;;;;;;;4995078;28;20493;-87
2022/02/23 08:36:19;;;;;;;4.40;0.70;;;;;;;;;;4973037;28;20042;-87
2022/02/23 08:38:45;;;;;;;2.43;0.60;;;;;;;;;;4978552;28;20030;-87
2022/02/23 08:41:11;;;;;;;5.17;1.33;;;;;;;;;;4978644;28;20126;-88
2022/02/23 08:43:37;;;;;;;5.50;1.07;;;;;;;;;;4978169;28;20030;-87
2022/02/23 08:46:03;;;;;;;3.60;0.80;;;;;;;;;;4979326;28;20034;-87
2022/02/23 08:48:29;;;;;;;2.23;0.60;;;;;;;;;;4978366;28;20030;-88
2022/02/23 08:50:55;;;;;;;2.63;0.70;;;;;;;;;;4978084;28;20027;-88
2022/02/23 08:53:24;;;;;;;3.50;0.70;;;;;;;;;;4976323;28;20030;-88
2022/02/23 08:55:49;;;;;;;5.00;0.83;;;;;;;;;;4976399;28;20031;-88
2022/02/23 08:58:15;;;;;;;3.93;1.00;;;;;;;;;;4977171;28;20026;-88
2022/02/23 09:00:42;;;;;;;2.93;0.90;;;;;;;;;;4977569;28;20077;-88
2022/02/23 09:03:08;;;;;;;5.17;0.90;;;;;;;;;;4973320;28;20168;-88
2022/02/23 09:05:34;;;;;;;5.57;0.97;;;;;;;;;;4975769;28;20080;-88
2022/02/23 09:08:00;;;;;;;4.67;0.93;;;;;;;;;;4975976;28;20479;-88
2022/02/23 09:10:26;;;;;;;2.43;0.40;;;;;;;;;;4974531;28;20030;-88
2022/02/23 09:12:52;;;;;;;2.67;0.37;;;;;;;;;;4998194;28;20041;-88
2022/02/23 09:15:18;;;;;;;2.87;0.70;;;;;;;;;;5013120;28;20026;-88
2022/02/23 09:17:47;;;;;;;2.50;0.40;;;;;;;;;;4995082;28;20022;-87
2022/02/23 09:20:13;;;;;;;2.23;0.40;;;;;;;;;;4995328;28;20125;-87
2022/02/23 09:22:39;;;;;;;4.80;0.60;;;;;;;;;;4977431;28;20546;-87
2022/02/23 09:25:06;;;;;;;3.90;0.80;;;;;;;;;;4973746;28;20031;-88
2022/02/23 09:27:34;;;;;;;4.27;0.63;;;;;;;;;;4974220;28;20027;-88
2022/02/23 09:30:00;;;;;;;3.67;0.83;;;;;;;;;;4959225;28;20426;-88
2022/02/23 09:32:26;;;;;;;3.20;0.67;;;;;;;;;;4992220;28;20033;-88
2022/02/23 09:34:52;;;;;;;4.13;0.60;;;;;;;;;;4991995;28;20041;-88
2022/02/23 09:37:19;;;;;;;2.77;0.50;;;;;;;;;;4975990;28;20113;-88
2022/02/23 09:39:45;;;;;;;4.47;0.53;;;;;;;;;;4992226;28;20019;-88
2022/02/23 09:42:11;;;;;;;1.60;0.63;;;;;;;;;;4974574;28;20056;-89
2022/02/23 09:44:41;;;;;;;5.13;0.67;;;;;;;;;;4974448;28;20517;-88
2022/02/23 09:47:07;;;;;;;3.47;0.40;;;;;;;;;;4974221;28;20031;-88
2022/02/23 09:49:35;;;;;;;1.90;0.40;;;;;;;;;;4992067;28;20122;-88
2022/02/23 09:52:01;;;;;;;2.27;0.50;;;;;;;;;;4974670;28;20031;-86
2022/02/23 09:54:27;;;;;;;3.40;0.60;;;;;;;;;;4973201;28;20402;-85
2022/02/23 09:56:53;;;;;;;1.80;0.73;;;;;;;;;;4974467;28;20383;-86
2022/02/23 09:59:21;;;;;;;4.27;0.50;;;;;;;;;;4974759;28;20086;-86
2022/02/23 10:01:48;;;;;;;1.00;0.30;;;;;;;;;;4992223;28;20109;-86
2022/02/23 10:04:19;;;;;;;4.93;0.53;;;;;;;;;;4973426;28;20040;-86
2022/02/23 10:06:46;;;;;;;4.67;1.00;;;;;;;;;;4991995;28;20022;-86
2022/02/23 10:09:13;;;;;;;3.10;0.93;;;;;;;;;;4978734;28;20097;-86
2022/02/23 10:11:40;;;;;;;4.67;0.57;;;;;;;;;;4977754;28;20048;-86
2022/02/23 10:14:10;;;;;;;3.80;0.57;;;;;;;;;;5010188;28;20052;-86
2022/02/23 10:16:44;;;;;;;1.27;0.30;;;;;;;;;;4997556;28;20379;-87
2022/02/23 10:19:13;;;;;;;4.07;0.37;;;;;;;;;;4987162;28;20121;-89
2022/02/23 10:21:46;;;;;;;2.27;0.50;;;;;;;;;;4978407;28;20366;-86
2022/02/23 10:24:32;;;;;;;1.60;0.40;;;;;;;;;;4994660;28;20448;-87
2022/02/23 10:27:03;;;;;;;1.23;0.40;;;;;;;;;;4958545;28;20495;-90
2022/02/23 10:29:30;;;;;;;2.97;0.40;;;;;;;;;;4958463;28;20027;-88
2022/02/23 10:31:57;;;;;;;2.20;0.60;;;;;;;;;;4984005;28;20073;-88
2022/02/23 10:34:25;;;;;;;3.43;0.40;;;;;;;;;;4975583;28;20476;-88
2022/02/23 10:36:58;;;;;;;4.63;0.40;;;;;;;;;;4963626;28;20030;-89
2022/02/23 10:39:24;;;;;;;4.60;0.40;;;;;;;;;;4980630;28;20102;-90
2022/02/23 10:42:02;;;;;;;3.37;0.70;;;;;;;;;;4979056;28;20034;-90
2022/02/23 10:44:29;;;;;;;1.53;0.20;;;;;;;;;;4975309;28;20031;-89
2022/02/23 10:46:59;;;;;;;2.30;0.30;;;;;;;;;;4975477;28;20352;-88
2022/02/23 10:49:25;;;;;;;2.40;0.32;;;;;;;;;;4976328;28;20057;-89
2022/02/23 10:51:55;;;;;;;2.60;0.30;;;;;;;;;;4958794;28;20062;-90
2022/02/23 10:54:22;;;;;;;3.08;0.47;;;;;;;;;;4982362;28;20039;-89
2022/02/23 10:56:48;;;;;;;4.77;0.90;;;;;;;;;;4966580;28;20141;-89
2022/02/23 10:59:15;;;;;;;3.90;0.50;;;;;;;;;;4982104;28;20027;-89
2022/02/23 11:01:42;;;;;;;2.15;0.40;;;;;;;;;;4973947;28;20022;-89
2022/02/23 11:04:09;;;;;;;1.48;0.25;;;;;;;;;;4964284;28;20050;-89
2022/02/23 11:06:36;;;;;;;3.45;0.63;;;;;;;;;;4973074;28;20169;-90
2022/02/23 11:09:03;;;;;;;1.63;0.38;;;;;;;;;;4968085;28;20267;-89
2022/02/23 11:11:30;;;;;;;2.53;0.60;;;;;;;;;;4975727;28;20061;-90
2022/02/23 11:13:59;;;;;;;2.05;0.65;;;;;;;;;;4987802;28;20677;-90
2022/02/23 11:16:26;;;;;;;4.50;0.80;;;;;;;;;;4973280;28;20033;-90
2022/02/23 11:18:52;;;;;;;2.88;0.50;;;;;;;;;;4975886;28;20018;-89
2022/02/23 11:21:20;;;;;;;3.13;0.80;;;;;;;;;;4958605;28;20039;-88
2022/02/23 11:23:49;;;;;;;3.60;0.40;;;;;;;;;;4968446;28;20028;-89
2022/02/23 11:26:17;;;;;;;2.72;0.40;;;;;;;;;;4959521;28;20041;-89
2022/02/23 11:29:02;;;;;;;3.28;0.57;;;;;;;;;;4958841;28;20043;-89
2022/02/23 11:31:33;;;;;;;1.48;0.68;;;;;;;;;;4973389;28;20031;-89
2022/02/23 11:34:00;;;;;;;3.30;0.65;;;;;;;;;;4964745;28;20022;-89
2022/02/23 11:36:39;;;;;;;1.10;0.30;;;;;;;;;;4982285;28;20034;-89
2022/02/23 11:39:06;;;;;;;2.25;0.50;;;;;;;;;;4982109;28;20019;-89
2022/02/23 11:44:08;;;;;;;2.50;0.47;;;;;;;;;;2956265;26;20062;-86
2022/02/23 11:46:59;;;;;;;3.88;0.57;;;;;;;;;;4975117;28;20019;-87
2022/02/23 11:49:43;;;;;;;2.15;0.43;;;;;;;;;;4978007;28;20026;-86
2022/02/23 11:52:35;;;;;;;2.13;0.38;;;;;;;;;;4957316;28;20049;-86
2022/02/23 11:58:07;;;;;;;4.57;0.50;;;;;;;;;;4973276;28;20034;-86
2022/02/23 12:00:56;;;;;;;3.05;0.73;;;;;;;;;;4960386;28;20051;-87
2022/02/23 12:03:23;;;;;;;4.00;0.60;;;;;;;;;;4958744;28;20392;-87
2022/02/23 12:06:06;;;;;;;2.72;0.63;;;;;;;;;;4956256;28;20086;-86
2022/02/23 12:08:36;;;;;;;3.55;0.28;;;;;;;;;;4961279;28;20139;-87
2022/02/23 12:11:14;;;;;;;2.40;0.50;;;;;;;;;;4962457;28;20031;-87
2022/02/23 12:13:48;;;;;;;2.20;0.50;;;;;;;;;;4955680;28;20106;-85
2022/02/23 12:16:38;;;;;;;6.93;0.47;;;;;;;;;;4968483;28;20062;-86
2022/02/23 12:19:09;;;;;;;2.30;0.30;;;;;;;;;;4977095;28;20057;-86
2022/02/23 12:21:46;;;;;;;1.90;0.30;;;;;;;;;;4959486;28;20454;-86
2022/02/23 12:24:19;;;;;;;3.03;0.70;;;;;;;;;;4965751;28;20475;-86
2022/02/23 12:26:46;;;;;;;2.65;0.30;;;;;;;;;;4971435;28;20040;-87
2022/02/23 12:29:18;;;;;;;2.05;0.38;;;;;;;;;;4965723;28;20101;-87
2022/02/23 12:32:19;;;;;;;1.65;0.30;;;;;;;;;;4971939;28;20106;-88
2022/02/23 12:34:48;;;;;;;1.33;0.38;;;;;;;;;;4941072;28;20027;-86
2022/02/23 12:37:30;;;;;;;;;;;;;;;;;;;;;
2022/02/23 12:39:59;;;;;;;2.45;0.50;;;;;;;;;;4970179;28;20494;-85
2022/02/23 12:42:31;;;;;;;1.85;0.50;;;;;;;;;;4952644;29;20467;-85
2022/02/23 12:44:59;;;;;;;2.92;0.43;;;;;;;;;;4935210;29;20050;-88
2022/02/23 12:47:36;;;;;;;1.90;0.75;;;;;;;;;;4936693;29;20447;-88
2022/02/23 12:50:06;;;;;;;1.27;0.40;;;;;;;;;;4940587;29;20099;-87
2022/02/23 12:52:35;;;;;;;2.15;0.50;;;;;;;;;;4936290;29;20082;-85
2022/02/23 12:55:14;;;;;;;1.80;0.50;;;;;;;;;;4936595;29;20031;-86
2022/02/23 12:57:52;;;;;;;1.83;0.43;;;;;;;;;;4944254;28;20022;-88
2022/02/23 13:03:22;;;;;;;5.35;0.75;;;;;;;;;;4968514;28;20035;-85
2022/02/23 13:05:58;;;;;;;3.40;0.40;;;;;;;;;;4961211;28;20077;-85
2022/02/23 13:08:43;;;;;;;1.05;0.30;;;;;;;;;;4944128;29;20023;-87
2022/02/23 13:11:26;;;;;;;1.83;0.32;;;;;;;;;;4942734;29;20035;-86
2022/02/23 13:13:52;;;;;;;1.50;0.30;;;;;;;;;;4957211;28;20061;-86
2022/02/23 13:16:35;;;;;;;;;;;;;;;;;;;;;
2022/02/23 13:19:30;;;;;;;2.22;0.60;;;;;;;;;;4981199;28;20103;-86
2022/02/23 13:22:07;;;;;;;1.73;0.50;;;;;;;;;;4961907;28;20065;-87
2022/02/23 13:24:36;;;;;;;2.25;0.32;;;;;;;;;;4977484;28;20045;-87
2022/02/23 13:27:27;;;;;;;;;;;;;;;;;;;;;
2022/02/23 13:29:55;;;;;;;1.63;0.43;;;;;;;;;;4977848;28;20118;-87
2022/02/23 13:32:30;;;;;;;2.92;0.65;;;;;;;;;;5093462;23;20178;-86
2022/02/23 13:35:02;;;;;;;3.08;0.43;;;;;;;;;;4979038;28;20096;-87
2022/02/23 13:37:36;;;;;;;;;;;;;;;;;;4973443;28;20141;-86
2022/02/23 13:40:36;;;;;;;3.33;0.30;;;;;;;;;;4994746;28;19960;-87
2022/02/23 13:43:16;;;;;;;3.72;0.80;;;;;;;;;;4978769;28;20479;-87
2022/02/23 13:45:56;;;;;;;2.65;0.40;;;;;;;;;;4975137;28;20034;-87
2022/02/23 13:48:22;;;;;;;1.67;0.47;;;;;;;;;;4979089;28;20114;-87
2022/02/23 13:50:51;;;;;;;1.63;0.50;;;;;;;;;;4976480;28;20589;-88
2022/02/23 13:53:22;;;;;;;1.85;0.40;;;;;;;;;;4975628;28;20061;-87
2022/02/23 13:55:51;;;;;;;0.60;0.20;;;;;;;;;;4995217;28;20019;-86
2022/02/23 13:58:23;;;;;;;2.92;0.40;;;;;;;;;;4976514;28;20069;-86
2022/02/23 14:01:11;;;;;;;;;;;;;;;;;;;;;
2022/02/23 14:03:39;;;;;;;1.75;0.30;;;;;;;;;;4995508;28;19978;-86
2022/02/23 14:06:23;;;;;;;1.92;0.40;;;;;;;;;;4978644;28;20515;-86
2022/02/23 14:09:16;;;;;;;2.92;0.38;;;;;;;;;;4979856;28;20130;-87
2022/02/23 14:11:44;;;;;;;0.50;0.20;;;;;;;;;;4979415;28;20038;-87
2022/02/23 14:14:15;;;;;;;1.95;0.40;;;;;;;;;;4979743;28;20176;-86
2022/02/23 14:16:42;;;;;;;1.13;0.30;;;;;;;;;;4995715;28;20030;-87
2022/02/23 14:19:22;;;;;;;2.20;0.30;;;;;;;;;;4979131;28;20037;-86
2022/02/23 14:21:51;;;;;;;2.60;0.25;;;;;;;;;;4985146;28;20093;-86
2022/02/23 14:27:38;;;;;;;0.85;0.20;;;;;;;;;;4979150;28;20046;-86
2022/02/23 14:30:23;;;;;;;1.73;0.52;;;;;;;;;;4974095;28;20042;-86
2022/02/23 14:33:02;;;;;;;;;;;;;;;;;;;;;
2022/02/23 14:35:32;;;;;;;1.48;0.30;;;;;;;;;;4986312;28;20037;-86
2022/02/23 14:38:28;;;;;;;1.58;0.55;;;;;;;;;;4969739;28;20118;-87
2022/02/23 14:44:09;;;;;;;2.15;0.45;;;;;;;;;;4972796;28;20054;-87
2022/02/23 14:47:19;;;;;;;1.70;0.38;;;;;;;;;;4976635;28;20038;-87
2022/02/23 14:49:38;;;;;;;;;;;;;;;;;;4988361;28;20034;-86
2022/02/23 14:52:04;;;;;;;0.98;0.47;;;;;;;;;;4990384;28;20338;-87
2022/02/23 14:54:39;;;;;;;1.10;0.15;;;;;;;;;;4992434;28;20054;-87
2022/02/23 14:57:08;;;;;;;0.70;0.20;;;;;;;;;;4984698;28;20122;-87
2022/02/23 14:59:35;;;;;;;3.10;0.50;;;;;;;;;;4993444;28;20023;-87
2022/02/23 15:02:02;;;;;;;2.35;0.40;;;;;;;;;;4984217;28;20030;-87
2022/02/23 15:04:28;;;;;;;1.02;0.20;;;;;;;;;;4982565;28;20034;-87
2022/02/23 15:06:58;;;;;;;0.60;0.20;;;;;;;;;;4977480;28;20041;-85
2022/02/23 15:09:27;;;;;;;0.98;0.20;;;;;;;;;;4996700;28;20031;-84
2022/02/23 15:14:55;;;;;;;1.42;0.38;;;;;;;;;;4992597;28;20049;-85
2022/02/23 15:17:25;;;;;;;1.30;0.20;;;;;;;;;;4987282;28;20034;-85
2022/02/23 15:20:02;;;;;;;1.55;0.25;;;;;;;;;;4980007;28;20019;-85
2022/02/23 15:22:31;;;;;;;1.17;0.30;;;;;;;;;;4983701;28;20034;-86